Time;durP1;ratioP1;P1;durP2;ratioP2;P2;SDS_P1;SDS_P2;PMS_P1;PMS_P2;Temp;Humidity;BMP_temperature;BMP_pressure;BME280_temperature;BME280_humidity;BME280_pressure;Samples;Min_cycle;Max_cycle;Signal;HPM_P1;HPM_P2
2023/07/04 00:01:01;;;;;;;63.17;50.85;;;;;;;;;;5107506;28;20049;-56
2023/07/04 00:03:28;;;;;;;80.20;61.42;;;;;;;;;;5107548;28;20077;-60
2023/07/04 00:05:56;;;;;;;62.30;48.08;;;;;;;;;;5107414;28;20028;-53
2023/07/04 00:08:24;;;;;;;59.60;45.67;;;;;;;;;;5107488;28;20028;-55
2023/07/04 00:10:52;;;;;;;48.03;36.95;;;;;;;;;;5107420;28;20020;-55
2023/07/04 00:13:20;;;;;;;32.75;26.80;;;;;;;;;;5107071;28;20024;-52
2023/07/04 00:15:48;;;;;;;33.83;26.50;;;;;;;;;;5107244;28;20084;-51
2023/07/04 00:18:14;;;;;;;28.70;22.38;;;;;;;;;;5107043;28;20035;-52
2023/07/04 00:20:42;;;;;;;29.70;20.73;;;;;;;;;;5107072;28;20031;-53
2023/07/04 00:23:09;;;;;;;22.13;17.95;;;;;;;;;;5107176;28;20024;-51
2023/07/04 00:25:35;;;;;;;19.20;16.00;;;;;;;;;;5107077;28;20068;-58
2023/07/04 00:28:05;;;;;;;21.65;18.60;;;;;;;;;;5106992;28;20035;-53
2023/07/04 00:30:34;;;;;;;25.38;22.63;;;;;;;;;;5107503;28;20040;-53
2023/07/04 00:33:00;;;;;;;32.38;28.95;;;;;;;;;;5107108;28;20054;-54
2023/07/04 00:35:27;;;;;;;29.00;26.00;;;;;;;;;;5107182;28;20032;-57
2023/07/04 00:37:55;;;;;;;27.17;24.42;;;;;;;;;;5107035;28;20082;-52
2023/07/04 00:40:22;;;;;;;28.27;24.85;;;;;;;;;;5107267;28;20069;-56
2023/07/04 00:42:51;;;;;;;22.75;20.45;;;;;;;;;;5105894;28;20016;-52
2023/07/04 00:45:21;;;;;;;21.40;17.30;;;;;;;;;;5107157;28;20032;-54
2023/07/04 00:47:53;;;;;;;20.42;18.38;;;;;;;;;;5106679;28;20020;-50
2023/07/04 00:50:28;;;;;;;27.40;20.88;;;;;;;;;;5107191;28;20035;-52
2023/07/04 00:52:55;;;;;;;25.70;22.65;;;;;;;;;;5106604;28;20032;-58
2023/07/04 00:55:22;;;;;;;22.00;18.15;;;;;;;;;;5106861;28;20040;-56
2023/07/04 00:57:49;;;;;;;35.13;31.35;;;;;;;;;;5106653;28;20043;-52
2023/07/04 01:00:20;;;;;;;38.47;34.08;;;;;;;;;;5107001;28;20315;-54
2023/07/04 01:02:48;;;;;;;49.53;42.03;;;;;;;;;;5106261;28;20083;-54
2023/07/04 01:05:19;;;;;;;44.85;40.05;;;;;;;;;;5106964;28;20216;-54
2023/07/04 01:07:48;;;;;;;19.73;17.38;;;;;;;;;;5106006;28;20057;-55
2023/07/04 01:10:20;;;;;;;16.75;12.45;;;;;;;;;;5100174;28;20096;-55
2023/07/04 01:12:48;;;;;;;36.22;24.10;;;;;;;;;;5097486;28;20028;-55
2023/07/04 01:15:16;;;;;;;39.08;28.60;;;;;;;;;;5106732;28;20016;-55
2023/07/04 01:17:43;;;;;;;97.68;70.40;;;;;;;;;;5106413;28;20024;-54
2023/07/04 01:20:16;;;;;;;47.58;31.25;;;;;;;;;;5106506;28;20027;-53
2023/07/04 01:22:45;;;;;;;40.15;27.25;;;;;;;;;;5105678;28;20319;-53
2023/07/04 01:25:24;;;;;;;39.63;27.05;;;;;;;;;;5098449;28;20058;-52
2023/07/04 01:27:51;;;;;;;42.13;27.27;;;;;;;;;;5085941;28;20024;-56
2023/07/04 01:30:19;;;;;;;44.35;30.90;;;;;;;;;;5086060;28;20270;-55
2023/07/04 01:32:52;;;;;;;35.42;28.52;;;;;;;;;;5085827;28;20088;-56
2023/07/04 01:35:18;;;;;;;38.28;30.98;;;;;;;;;;5085849;28;20338;-57
2023/07/04 01:37:45;;;;;;;28.35;24.00;;;;;;;;;;5085993;28;20040;-56
2023/07/04 01:40:12;;;;;;;22.30;18.63;;;;;;;;;;5103625;28;20024;-55
2023/07/04 01:42:40;;;;;;;39.13;26.75;;;;;;;;;;5092460;28;20489;-58
2023/07/04 01:45:07;;;;;;;26.40;19.98;;;;;;;;;;5104702;28;20040;-58
2023/07/04 01:47:35;;;;;;;17.10;11.27;;;;;;;;;;5105739;28;20203;-60
2023/07/04 01:50:03;;;;;;;17.02;12.85;;;;;;;;;;5106192;28;20024;-59
2023/07/04 01:52:30;;;;;;;23.02;17.02;;;;;;;;;;5104449;28;20111;-55
2023/07/04 01:54:57;;;;;;;22.48;16.88;;;;;;;;;;5104775;28;20346;-58
2023/07/04 01:57:25;;;;;;;19.35;12.70;;;;;;;;;;5104517;28;20027;-56
2023/07/04 01:59:52;;;;;;;18.65;11.82;;;;;;;;;;5105988;28;20034;-57
2023/07/04 02:02:18;;;;;;;48.50;35.70;;;;;;;;;;5105116;28;20016;-56
2023/07/04 02:04:45;;;;;;;38.58;29.35;;;;;;;;;;5104265;28;20100;-58
2023/07/04 02:07:12;;;;;;;24.27;18.20;;;;;;;;;;5092750;28;20029;-57
2023/07/04 02:09:38;;;;;;;18.45;12.95;;;;;;;;;;5105643;28;20046;-58
2023/07/04 02:12:09;;;;;;;15.88;9.90;;;;;;;;;;5100568;28;20024;-57
2023/07/04 02:14:35;;;;;;;15.60;8.35;;;;;;;;;;5097707;28;20035;-58
2023/07/04 02:17:02;;;;;;;10.55;7.20;;;;;;;;;;5105335;28;20043;-55
2023/07/04 02:19:29;;;;;;;8.57;5.90;;;;;;;;;;5105422;28;20065;-56
2023/07/04 02:21:55;;;;;;;9.40;6.18;;;;;;;;;;5103818;28;20031;-55
2023/07/04 02:24:22;;;;;;;19.15;13.30;;;;;;;;;;5104941;28;20332;-58
2023/07/04 02:26:50;;;;;;;33.33;19.02;;;;;;;;;;5105000;28;20312;-60
2023/07/04 02:29:16;;;;;;;23.98;14.23;;;;;;;;;;5104993;28;20103;-56
2023/07/04 02:31:43;;;;;;;15.10;9.30;;;;;;;;;;5105065;28;20043;-56
2023/07/04 02:34:10;;;;;;;13.05;7.78;;;;;;;;;;5105131;28;20024;-56
2023/07/04 02:36:36;;;;;;;8.52;6.07;;;;;;;;;;5104523;28;20059;-57
2023/07/04 02:39:03;;;;;;;7.45;4.95;;;;;;;;;;5104852;28;20020;-54
2023/07/04 02:41:30;;;;;;;6.22;4.50;;;;;;;;;;5103555;28;20304;-58
2023/07/04 02:43:57;;;;;;;6.57;4.10;;;;;;;;;;5095421;28;20095;-64
2023/07/04 02:46:24;;;;;;;13.52;7.32;;;;;;;;;;5084443;28;20008;-58
2023/07/04 02:48:50;;;;;;;14.00;7.53;;;;;;;;;;5084457;28;20020;-57
2023/07/04 02:51:17;;;;;;;8.30;4.32;;;;;;;;;;5084193;28;20052;-60
2023/07/04 02:53:44;;;;;;;7.35;4.10;;;;;;;;;;5084356;28;20031;-56
2023/07/04 02:56:11;;;;;;;7.53;3.60;;;;;;;;;;5084451;28;20024;-57
2023/07/04 02:58:38;;;;;;;13.70;9.73;;;;;;;;;;5084172;28;20343;-58
2023/07/04 03:01:05;;;;;;;37.45;32.90;;;;;;;;;;5084256;28;20015;-55
2023/07/04 03:03:33;;;;;;;33.78;29.20;;;;;;;;;;5093241;28;20037;-57
2023/07/04 03:06:00;;;;;;;21.15;18.77;;;;;;;;;;5102575;28;20034;-56
2023/07/04 03:08:27;;;;;;;16.33;12.32;;;;;;;;;;5103323;28;20019;-55
2023/07/04 03:10:55;;;;;;;13.57;11.07;;;;;;;;;;5104833;28;20254;-58
2023/07/04 03:13:21;;;;;;;10.65;9.10;;;;;;;;;;5104332;28;20137;-57
2023/07/04 03:15:48;;;;;;;10.48;8.07;;;;;;;;;;5099639;28;20024;-55
2023/07/04 03:18:14;;;;;;;10.00;6.95;;;;;;;;;;5095571;28;20016;-55
2023/07/04 03:20:41;;;;;;;7.75;6.35;;;;;;;;;;5103622;28;20028;-56
2023/07/04 03:23:08;;;;;;;9.70;5.63;;;;;;;;;;5104216;28;20082;-56
2023/07/04 03:25:34;;;;;;;8.23;4.78;;;;;;;;;;5104057;28;20243;-55
2023/07/04 03:28:04;;;;;;;5.53;4.28;;;;;;;;;;5103880;28;20048;-58
2023/07/04 03:30:30;;;;;;;5.53;4.25;;;;;;;;;;5104694;28;20028;-61
2023/07/04 03:32:58;;;;;;;5.80;3.58;;;;;;;;;;5104177;28;20020;-58
2023/07/04 03:35:25;;;;;;;4.88;3.20;;;;;;;;;;5103789;28;20032;-59
2023/07/04 03:37:52;;;;;;;6.03;3.30;;;;;;;;;;5104156;28;20246;-56
2023/07/04 03:40:18;;;;;;;4.47;3.40;;;;;;;;;;5104001;28;20012;-55
2023/07/04 03:42:45;;;;;;;5.47;2.85;;;;;;;;;;5103808;28;20074;-59
2023/07/04 03:45:12;;;;;;;7.05;2.80;;;;;;;;;;5104407;28;20368;-60
2023/07/04 03:47:39;;;;;;;3.55;2.58;;;;;;;;;;5103965;28;20050;-55
2023/07/04 03:50:06;;;;;;;3.10;2.33;;;;;;;;;;5102710;28;20032;-55
2023/07/04 03:52:33;;;;;;;3.55;1.90;;;;;;;;;;5103966;28;20019;-59
2023/07/04 03:55:00;;;;;;;5.38;1.60;;;;;;;;;;5104320;28;20079;-56
2023/07/04 03:57:26;;;;;;;1.90;1.65;;;;;;;;;;5103756;28;20043;-61
2023/07/04 03:59:53;;;;;;;1.92;1.30;;;;;;;;;;5104267;28;20084;-56
2023/07/04 04:02:20;;;;;;;2.42;1.52;;;;;;;;;;5103888;28;20031;-56
2023/07/04 04:04:46;;;;;;;1.60;1.10;;;;;;;;;;5104075;28;20058;-57
2023/07/04 04:07:14;;;;;;;2.10;1.20;;;;;;;;;;5103746;28;20043;-58
2023/07/04 04:09:42;;;;;;;1.92;1.23;;;;;;;;;;5104141;28;20020;-55
2023/07/04 04:12:09;;;;;;;1.88;0.95;;;;;;;;;;5103661;28;20036;-59
2023/07/04 04:14:36;;;;;;;2.25;0.77;;;;;;;;;;5104001;28;20032;-59
2023/07/04 04:17:04;;;;;;;2.17;0.80;;;;;;;;;;5103768;28;20368;-56
2023/07/04 04:19:31;;;;;;;1.77;0.63;;;;;;;;;;5107452;28;20024;-58
2023/07/04 04:21:57;;;;;;;3.15;1.17;;;;;;;;;;5107415;28;20027;-56
2023/07/04 04:24:24;;;;;;;2.00;0.80;;;;;;;;;;5107282;28;20043;-57
2023/07/04 04:26:51;;;;;;;3.42;0.88;;;;;;;;;;5107301;28;20032;-57
2023/07/04 04:29:19;;;;;;;3.58;1.08;;;;;;;;;;5107373;28;20027;-59
2023/07/04 04:31:47;;;;;;;3.83;0.70;;;;;;;;;;5107310;28;20032;-59
2023/07/04 04:34:16;;;;;;;2.40;0.80;;;;;;;;;;5106850;28;20032;-58
2023/07/04 04:36:43;;;;;;;3.42;0.82;;;;;;;;;;5107199;28;20016;-55
2023/07/04 04:39:09;;;;;;;10.77;2.45;;;;;;;;;;5107107;28;20035;-55
2023/07/04 04:41:36;;;;;;;12.40;4.35;;;;;;;;;;5106958;28;20232;-57
2023/07/04 04:44:04;;;;;;;8.63;3.03;;;;;;;;;;5107019;28;20028;-58
2023/07/04 04:46:32;;;;;;;5.60;1.75;;;;;;;;;;5090985;28;20392;-60
2023/07/04 04:48:58;;;;;;;9.20;2.08;;;;;;;;;;5086668;28;20292;-55
2023/07/04 04:51:25;;;;;;;5.10;1.40;;;;;;;;;;5086839;28;20028;-53
2023/07/04 04:53:53;;;;;;;4.90;1.60;;;;;;;;;;5086733;28;20027;-57
2023/07/04 04:56:20;;;;;;;6.15;1.60;;;;;;;;;;5086459;28;20340;-54
2023/07/04 04:58:46;;;;;;;3.47;1.30;;;;;;;;;;5086468;28;20073;-55
2023/07/04 05:01:14;;;;;;;4.78;1.20;;;;;;;;;;5086481;28;20047;-56
2023/07/04 05:03:44;;;;;;;6.88;2.00;;;;;;;;;;5086371;28;20051;-55
2023/07/04 05:06:11;;;;;;;5.80;1.30;;;;;;;;;;5086421;28;20031;-55
2023/07/04 05:08:38;;;;;;;4.25;1.48;;;;;;;;;;5091102;28;20028;-58
2023/07/04 05:11:07;;;;;;;5.57;1.38;;;;;;;;;;5100445;28;20028;-55
2023/07/04 05:13:38;;;;;;;3.40;1.17;;;;;;;;;;5106531;28;20094;-58
2023/07/04 05:16:06;;;;;;;4.38;1.00;;;;;;;;;;5106170;28;20028;-61
2023/07/04 05:18:34;;;;;;;2.03;0.82;;;;;;;;;;5106203;28;20051;-58
2023/07/04 05:21:05;;;;;;;5.97;1.10;;;;;;;;;;5106251;28;20024;-56
2023/07/04 05:23:32;;;;;;;4.20;0.88;;;;;;;;;;5106242;28;20024;-58
2023/07/04 05:26:06;;;;;;;2.83;0.90;;;;;;;;;;5105938;28;20239;-59
2023/07/04 05:28:33;;;;;;;3.38;0.73;;;;;;;;;;5105962;28;20232;-63
2023/07/04 05:31:01;;;;;;;2.30;0.50;;;;;;;;;;5106103;28;20032;-56
2023/07/04 05:33:28;;;;;;;2.40;0.70;;;;;;;;;;5105851;28;20020;-61
2023/07/04 05:36:04;;;;;;;1.48;0.60;;;;;;;;;;5105917;28;20091;-55
2023/07/04 05:38:31;;;;;;;2.00;0.60;;;;;;;;;;5105670;28;20262;-56
2023/07/04 05:40:57;;;;;;;1.10;0.50;;;;;;;;;;5105763;28;20039;-56
2023/07/04 05:43:24;;;;;;;1.63;0.60;;;;;;;;;;5105680;28;20069;-59
2023/07/04 05:45:51;;;;;;;2.10;0.73;;;;;;;;;;5105547;28;20331;-60
2023/07/04 05:48:18;;;;;;;3.60;0.70;;;;;;;;;;5105583;28;20287;-55
2023/07/04 05:50:55;;;;;;;4.53;0.50;;;;;;;;;;5105774;28;20040;-55
2023/07/04 05:53:24;;;;;;;4.57;0.68;;;;;;;;;;5105600;28;20028;-59
2023/07/04 05:55:51;;;;;;;4.18;0.73;;;;;;;;;;5105394;28;20062;-57
2023/07/04 05:58:18;;;;;;;2.42;0.60;;;;;;;;;;5105674;28;20023;-56
2023/07/04 06:00:47;;;;;;;5.50;0.52;;;;;;;;;;5105324;28;20036;-57
2023/07/04 06:03:17;;;;;;;1.50;0.45;;;;;;;;;;5105249;28;20093;-60
2023/07/04 06:05:44;;;;;;;0.90;0.47;;;;;;;;;;5105309;28;20077;-59
2023/07/04 06:08:11;;;;;;;2.35;0.60;;;;;;;;;;5105424;28;20193;-56
2023/07/04 06:10:37;;;;;;;1.70;0.40;;;;;;;;;;5105473;28;20362;-60
2023/07/04 06:13:04;;;;;;;4.43;0.57;;;;;;;;;;5105236;28;20079;-55
2023/07/04 06:15:31;;;;;;;2.50;0.40;;;;;;;;;;5105306;28;20314;-58
2023/07/04 06:17:57;;;;;;;2.90;0.50;;;;;;;;;;5105069;28;20091;-58
2023/07/04 06:20:24;;;;;;;2.65;0.60;;;;;;;;;;5105548;28;20300;-54
2023/07/04 06:22:51;;;;;;;2.08;0.50;;;;;;;;;;5104883;28;20051;-55
2023/07/04 06:25:18;;;;;;;1.85;0.52;;;;;;;;;;5104811;28;20107;-58
2023/07/04 06:27:44;;;;;;;2.42;0.60;;;;;;;;;;5104938;28;20073;-58
2023/07/04 06:30:12;;;;;;;3.33;0.68;;;;;;;;;;5105140;28;20032;-58
2023/07/04 06:32:39;;;;;;;0.95;0.40;;;;;;;;;;5105067;28;20043;-55
2023/07/04 06:35:06;;;;;;;2.38;0.50;;;;;;;;;;5105077;28;20223;-55
2023/07/04 06:37:33;;;;;;;2.05;0.47;;;;;;;;;;5104593;28;20024;-58
2023/07/04 06:40:00;;;;;;;2.35;0.75;;;;;;;;;;5104798;28;20251;-58
2023/07/04 06:42:26;;;;;;;2.42;0.50;;;;;;;;;;5104430;28;20042;-59
2023/07/04 06:44:53;;;;;;;1.33;0.65;;;;;;;;;;5104833;28;20051;-59
2023/07/04 06:47:19;;;;;;;3.97;0.50;;;;;;;;;;5104745;28;20328;-58
2023/07/04 06:49:46;;;;;;;1.65;0.47;;;;;;;;;;5104901;28;20284;-59
2023/07/04 06:52:12;;;;;;;1.13;0.50;;;;;;;;;;5104393;28;20047;-61
2023/07/04 06:54:39;;;;;;;1.58;0.32;;;;;;;;;;5104779;28;20370;-55
2023/07/04 06:57:06;;;;;;;2.15;0.85;;;;;;;;;;5104564;28;20032;-57
2023/07/04 06:59:32;;;;;;;1.27;0.50;;;;;;;;;;5104432;28;20040;-60
2023/07/04 07:01:59;;;;;;;2.22;0.70;;;;;;;;;;5104487;28;20200;-58
2023/07/04 07:04:25;;;;;;;2.67;0.70;;;;;;;;;;5104486;28;20166;-60
2023/07/04 07:06:52;;;;;;;1.65;0.60;;;;;;;;;;5104228;28;20093;-59
2023/07/04 07:09:19;;;;;;;2.05;0.70;;;;;;;;;;5104570;28;20237;-60
2023/07/04 07:11:45;;;;;;;2.70;0.70;;;;;;;;;;5104211;28;20043;-54
2023/07/04 07:14:12;;;;;;;3.33;0.63;;;;;;;;;;5104285;28;20238;-60
2023/07/04 07:16:39;;;;;;;1.05;0.50;;;;;;;;;;5104369;28;20024;-54
2023/07/04 07:19:06;;;;;;;1.77;0.70;;;;;;;;;;5104471;28;20213;-55
2023/07/04 07:21:32;;;;;;;3.58;0.85;;;;;;;;;;5104109;28;20028;-57
2023/07/04 07:24:01;;;;;;;2.33;0.50;;;;;;;;;;5103862;28;20021;-55
2023/07/04 07:26:28;;;;;;;2.17;0.60;;;;;;;;;;5104068;28;20028;-55
2023/07/04 07:28:55;;;;;;;0.80;0.45;;;;;;;;;;5104144;28;20095;-54
2023/07/04 07:31:23;;;;;;;2.53;0.60;;;;;;;;;;5103930;28;20039;-59
2023/07/04 07:33:50;;;;;;;3.95;0.80;;;;;;;;;;5104088;28;20222;-59
2023/07/04 07:36:16;;;;;;;2.00;0.70;;;;;;;;;;5103968;28;20380;-58
2023/07/04 07:38:43;;;;;;;2.83;0.70;;;;;;;;;;5103918;28;20085;-60
2023/07/04 07:41:10;;;;;;;1.63;0.68;;;;;;;;;;5103912;28;20083;-54
2023/07/04 07:43:38;;;;;;;1.20;0.50;;;;;;;;;;5104046;28;20032;-56
2023/07/04 07:46:08;;;;;;;3.05;0.50;;;;;;;;;;5103822;28;20282;-63
2023/07/04 07:48:34;;;;;;;5.45;0.75;;;;;;;;;;5103905;28;20130;-55
2023/07/04 07:51:01;;;;;;;4.95;0.73;;;;;;;;;;5103910;28;20387;-58
2023/07/04 07:53:28;;;;;;;1.75;0.52;;;;;;;;;;5107481;28;20024;-57
2023/07/04 07:55:54;;;;;;;3.17;0.43;;;;;;;;;;5108055;28;20024;-58
2023/07/04 07:58:21;;;;;;;3.63;0.82;;;;;;;;;;5107715;28;20303;-59
2023/07/04 08:00:47;;;;;;;2.83;0.70;;;;;;;;;;5107617;28;20036;-55
2023/07/04 08:03:14;;;;;;;1.58;0.50;;;;;;;;;;5107592;28;20020;-59
2023/07/04 08:05:41;;;;;;;3.78;0.60;;;;;;;;;;5107994;28;20040;-59
2023/07/04 08:08:09;;;;;;;2.13;0.63;;;;;;;;;;5107482;28;20338;-56
2023/07/04 08:10:37;;;;;;;1.45;0.43;;;;;;;;;;5108161;28;20020;-54
2023/07/04 08:13:03;;;;;;;4.30;0.73;;;;;;;;;;5107510;28;20040;-60
2023/07/04 08:15:30;;;;;;;2.55;0.80;;;;;;;;;;5107666;28;20027;-62
2023/07/04 08:17:57;;;;;;;5.55;0.80;;;;;;;;;;5107717;28;20266;-59
2023/07/04 08:20:23;;;;;;;3.92;0.50;;;;;;;;;;5107862;28;20349;-62
2023/07/04 08:22:50;;;;;;;2.65;0.57;;;;;;;;;;5107252;28;20224;-56
2023/07/04 08:25:17;;;;;;;3.40;0.80;;;;;;;;;;5107262;28;20052;-56
2023/07/04 08:27:43;;;;;;;2.60;0.60;;;;;;;;;;5107285;28;20036;-59
2023/07/04 08:30:10;;;;;;;4.10;0.63;;;;;;;;;;5107772;28;20184;-57
2023/07/04 08:32:36;;;;;;;1.27;0.50;;;;;;;;;;5107397;28;20024;-57
2023/07/04 08:35:03;;;;;;;7.40;0.85;;;;;;;;;;5107481;28;20039;-60
2023/07/04 08:37:30;;;;;;;2.33;0.43;;;;;;;;;;5106962;28;20034;-59
2023/07/04 08:39:57;;;;;;;6.00;0.70;;;;;;;;;;5107451;28;20092;-62
2023/07/04 08:42:26;;;;;;;2.28;0.60;;;;;;;;;;5107054;28;20201;-58
2023/07/04 08:44:53;;;;;;;9.00;0.88;;;;;;;;;;5107275;28;20047;-56
2023/07/04 08:47:30;;;;;;;1.90;0.70;;;;;;;;;;5106954;28;20024;-55
2023/07/04 08:49:59;;;;;;;3.17;0.65;;;;;;;;;;5107258;28;20032;-54
2023/07/04 08:52:37;;;;;;;4.22;0.70;;;;;;;;;;5107002;28;20032;-58
2023/07/04 08:55:06;;;;;;;4.15;0.60;;;;;;;;;;5107020;28;20036;-55
2023/07/04 08:57:44;;;;;;;3.13;0.90;;;;;;;;;;5106529;28;20091;-58
2023/07/04 09:00:13;;;;;;;2.72;0.80;;;;;;;;;;5107091;28;20104;-60
2023/07/04 09:02:54;;;;;;;2.47;0.80;;;;;;;;;;5106405;28;20043;-60
2023/07/04 09:05:27;;;;;;;6.15;1.00;;;;;;;;;;5106612;28;20203;-59
2023/07/04 09:08:14;;;;;;;4.25;0.77;;;;;;;;;;5106359;28;20074;-56
2023/07/04 09:10:42;;;;;;;5.47;0.70;;;;;;;;;;5096316;28;20036;-59
2023/07/04 09:13:14;;;;;;;3.72;0.77;;;;;;;;;;5106428;28;20045;-59
2023/07/04 09:15:45;;;;;;;2.97;0.63;;;;;;;;;;5106306;28;20108;-57
2023/07/04 09:18:14;;;;;;;4.45;0.77;;;;;;;;;;5106252;28;20028;-57
2023/07/04 09:20:47;;;;;;;1.83;0.80;;;;;;;;;;5106062;28;20020;-58
2023/07/04 09:23:22;;;;;;;4.00;0.82;;;;;;;;;;5106077;28;20030;-59
2023/07/04 09:25:49;;;;;;;4.05;1.00;;;;;;;;;;5105890;28;20052;-56
2023/07/04 09:28:16;;;;;;;2.63;0.60;;;;;;;;;;5106178;28;20062;-56
2023/07/04 09:30:42;;;;;;;5.45;1.00;;;;;;;;;;5106224;28;20028;-56
2023/07/04 09:33:10;;;;;;;6.57;0.80;;;;;;;;;;5106056;28;20027;-56
2023/07/04 09:35:36;;;;;;;4.47;0.95;;;;;;;;;;5106346;28;20040;-56
2023/07/04 09:38:03;;;;;;;1.50;0.63;;;;;;;;;;5106005;28;20043;-56
2023/07/04 09:40:48;;;;;;;5.32;0.70;;;;;;;;;;5106438;28;20355;-55
2023/07/04 09:43:27;;;;;;;5.88;0.90;;;;;;;;;;5105691;28;20081;-56
2023/07/04 09:46:09;;;;;;;2.40;0.80;;;;;;;;;;5105663;28;20043;-60
2023/07/04 09:48:35;;;;;;;;;;;;;;;;;;5106065;28;20032;-59
2023/07/04 09:51:16;;;;;;;6.53;1.00;;;;;;;;;;5105731;28;19930;-59
2023/07/04 09:53:43;;;;;;;4.53;0.65;;;;;;;;;;5105639;28;20028;-59
2023/07/04 09:56:09;;;;;;;6.38;0.90;;;;;;;;;;5105410;28;20039;-58
2023/07/04 09:58:36;;;;;;;5.30;0.90;;;;;;;;;;5105288;28;20331;-58
2023/07/04 10:01:17;;;;;;;2.28;0.70;;;;;;;;;;5105412;28;20261;-56
2023/07/04 10:03:45;;;;;;;3.58;0.93;;;;;;;;;;5105256;28;20015;-60
2023/07/04 10:06:12;;;;;;;4.45;0.90;;;;;;;;;;5105287;28;20032;-56
2023/07/04 10:08:58;;;;;;;1.42;0.60;;;;;;;;;;5105353;28;20079;-55
2023/07/04 10:11:26;;;;;;;5.88;0.73;;;;;;;;;;5105193;28;20028;-55
2023/07/04 10:14:08;;;;;;;5.53;0.82;;;;;;;;;;5105416;28;20180;-58
2023/07/04 10:16:35;;;;;;;7.90;1.05;;;;;;;;;;5104096;28;20036;-54
2023/07/04 10:19:12;;;;;;;5.60;1.00;;;;;;;;;;5105213;28;20051;-55
2023/07/04 10:21:42;;;;;;;7.10;1.08;;;;;;;;;;5104935;28;20058;-54
2023/07/04 10:24:10;;;;;;;10.80;1.30;;;;;;;;;;5104933;28;20316;-59
2023/07/04 10:26:37;;;;;;;6.53;1.20;;;;;;;;;;5104595;28;20025;-58
2023/07/04 10:29:04;;;;;;;9.38;1.20;;;;;;;;;;5105222;28;20027;-61
2023/07/04 10:31:31;;;;;;;4.22;1.23;;;;;;;;;;5104808;28;20027;-60
2023/07/04 10:33:59;;;;;;;11.23;1.40;;;;;;;;;;5104850;28;20012;-59
2023/07/04 10:36:31;;;;;;;10.57;1.40;;;;;;;;;;5104621;28;20036;-61
2023/07/04 10:39:02;;;;;;;4.88;1.20;;;;;;;;;;5104995;28;20027;-59
2023/07/04 10:41:38;;;;;;;6.78;1.40;;;;;;;;;;5104602;28;20256;-57
2023/07/04 10:44:10;;;;;;;6.93;1.40;;;;;;;;;;5104728;28;20103;-60
2023/07/04 10:46:42;;;;;;;5.35;1.48;;;;;;;;;;5104550;28;20201;-62
2023/07/04 10:49:12;;;;;;;6.45;1.70;;;;;;;;;;5104467;28;20031;-57
2023/07/04 10:51:41;;;;;;;5.35;1.40;;;;;;;;;;5104467;28;20028;-57
2023/07/04 10:54:12;;;;;;;6.95;1.80;;;;;;;;;;5104768;28;20323;-58
2023/07/04 10:56:40;;;;;;;7.20;1.52;;;;;;;;;;5104469;28;20051;-61
2023/07/04 10:59:13;;;;;;;9.40;2.17;;;;;;;;;;5104466;28;20036;-59
2023/07/04 11:01:42;;;;;;;8.18;2.05;;;;;;;;;;5104281;28;20087;-59
2023/07/04 11:04:18;;;;;;;10.52;3.28;;;;;;;;;;5104601;28;20075;-59
2023/07/04 11:07:00;;;;;;;10.52;3.72;;;;;;;;;;5104264;28;20032;-63
2023/07/04 11:09:28;;;;;;;11.90;5.93;;;;;;;;;;5104623;28;20031;-57
2023/07/04 11:12:01;;;;;;;7.00;3.17;;;;;;;;;;5104380;28;20034;-59
2023/07/04 11:14:29;;;;;;;5.10;2.70;;;;;;;;;;5104231;28;20051;-59
2023/07/04 11:16:56;;;;;;;13.60;4.00;;;;;;;;;;5104188;28;20024;-60
2023/07/04 11:19:25;;;;;;;11.77;3.78;;;;;;;;;;5104247;28;20351;-57
2023/07/04 11:22:04;;;;;;;7.18;2.97;;;;;;;;;;5101874;28;20102;-57
2023/07/04 11:24:39;;;;;;;10.15;2.40;;;;;;;;;;5100098;28;20043;-57
2023/07/04 11:27:14;;;;;;;9.50;2.00;;;;;;;;;;5092492;28;20028;-56
2023/07/04 11:29:49;;;;;;;7.30;1.95;;;;;;;;;;5079179;28;20100;-55
2023/07/04 11:32:20;;;;;;;7.65;1.88;;;;;;;;;;5094891;28;20024;-61
2023/07/04 11:34:49;;;;;;;5.72;1.90;;;;;;;;;;5086785;28;20033;-54
2023/07/04 11:37:17;;;;;;;9.82;2.17;;;;;;;;;;5095853;28;20411;-58
2023/07/04 11:39:48;;;;;;;5.75;1.65;;;;;;;;;;5076291;28;20233;-54
2023/07/04 11:42:22;;;;;;;5.27;1.23;;;;;;;;;;5097681;28;20078;-53
2023/07/04 11:44:49;;;;;;;5.93;1.88;;;;;;;;;;5088523;28;20024;-57
2023/07/04 11:47:18;;;;;;;6.10;2.05;;;;;;;;;;5101221;28;20035;-53
2023/07/04 11:49:54;;;;;;;5.47;2.20;;;;;;;;;;5098319;28;20023;-56
2023/07/04 11:52:25;;;;;;;6.72;2.63;;;;;;;;;;5101803;28;20032;-54
2023/07/04 11:55:21;;;;;;;10.60;2.70;;;;;;;;;;5104155;28;20036;-53
2023/07/04 11:58:05;;;;;;;10.18;2.22;;;;;;;;;;5014653;28;20069;-56
2023/07/04 12:00:38;;;;;;;7.35;2.17;;;;;;;;;;5103642;28;20092;-51
2023/07/04 12:03:17;;;;;;;6.10;2.13;;;;;;;;;;5103003;28;20063;-53
2023/07/04 12:05:54;;;;;;;5.60;2.13;;;;;;;;;;5103477;28;20031;-54
2023/07/04 12:08:29;;;;;;;5.40;2.10;;;;;;;;;;5085305;28;20031;-56
2023/07/04 12:10:57;;;;;;;6.45;2.45;;;;;;;;;;5103724;28;20153;-55
2023/07/04 12:13:25;;;;;;;13.10;2.55;;;;;;;;;;5103395;28;20039;-55
2023/07/04 12:15:56;;;;;;;5.88;2.40;;;;;;;;;;5103431;28;20032;-55
2023/07/04 12:18:29;;;;;;;6.40;2.17;;;;;;;;;;5103553;28;20040;-58
2023/07/04 12:20:59;;;;;;;6.18;2.47;;;;;;;;;;5103581;28;20043;-60
2023/07/04 12:23:26;;;;;;;8.63;2.67;;;;;;;;;;5103385;28;20024;-61
2023/07/04 12:25:53;;;;;;;4.68;2.00;;;;;;;;;;5103073;28;20055;-57
2023/07/04 12:28:24;;;;;;;6.22;2.28;;;;;;;;;;5085245;28;20043;-56
2023/07/04 12:30:52;;;;;;;4.72;2.00;;;;;;;;;;5103341;28;20039;-54
2023/07/04 12:33:23;;;;;;;5.90;2.28;;;;;;;;;;5103165;28;20012;-59
2023/07/04 12:35:55;;;;;;;7.63;1.98;;;;;;;;;;5103292;28;20092;-55
2023/07/04 12:38:23;;;;;;;6.18;2.03;;;;;;;;;;5103538;28;20028;-55
2023/07/04 12:40:51;;;;;;;9.15;2.67;;;;;;;;;;5106769;28;20115;-54
2023/07/04 12:43:18;;;;;;;6.90;2.22;;;;;;;;;;5106685;28;20083;-54
2023/07/04 12:45:45;;;;;;;5.13;1.95;;;;;;;;;;5106781;28;20028;-56
2023/07/04 12:48:13;;;;;;;7.05;1.90;;;;;;;;;;5106778;28;20361;-56
2023/07/04 12:50:57;;;;;;;7.07;1.98;;;;;;;;;;5106726;28;20070;-54
2023/07/04 12:53:24;;;;;;;5.35;1.77;;;;;;;;;;5106521;28;20028;-55
2023/07/04 12:55:53;;;;;;;3.65;1.58;;;;;;;;;;5106666;28;20028;-57
2023/07/04 12:58:21;;;;;;;5.22;1.45;;;;;;;;;;5106608;28;20204;-62
2023/07/04 13:00:57;;;;;;;3.00;1.08;;;;;;;;;;5107019;28;20036;-54
2023/07/04 13:03:27;;;;;;;2.80;1.38;;;;;;;;;;5106528;28;20304;-55
2023/07/04 13:05:54;;;;;;;5.05;0.95;;;;;;;;;;5106272;28;20263;-59
2023/07/04 13:08:22;;;;;;;3.20;1.10;;;;;;;;;;5106359;28;20038;-60
2023/07/04 13:10:50;;;;;;;2.83;0.88;;;;;;;;;;5106422;28;20032;-59
2023/07/04 13:13:25;;;;;;;4.55;1.23;;;;;;;;;;5087973;28;20028;-58
2023/07/04 13:16:07;;;;;;;3.03;0.95;;;;;;;;;;5106217;28;20038;-54
2023/07/04 13:18:37;;;;;;;4.65;1.00;;;;;;;;;;5105961;28;20239;-54
2023/07/04 13:21:04;;;;;;;4.13;1.10;;;;;;;;;;5106157;28;20028;-55
2023/07/04 13:23:33;;;;;;;3.42;1.00;;;;;;;;;;5106014;28;20020;-55
2023/07/04 13:26:00;;;;;;;5.15;1.20;;;;;;;;;;5105666;28;20348;-59
2023/07/04 13:28:34;;;;;;;5.13;1.02;;;;;;;;;;5105999;28;20035;-54
2023/07/04 13:31:19;;;;;;;4.93;1.17;;;;;;;;;;5106058;28;20043;-56
2023/07/04 13:33:46;;;;;;;8.13;0.80;;;;;;;;;;5105802;28;20028;-53
2023/07/04 13:36:23;;;;;;;7.43;1.00;;;;;;;;;;5105716;28;20035;-54
2023/07/04 13:38:52;;;;;;;3.45;0.82;;;;;;;;;;5106000;28;20024;-53
2023/07/04 13:41:22;;;;;;;6.22;0.80;;;;;;;;;;5105704;28;20094;-57
2023/07/04 13:43:49;;;;;;;5.35;0.80;;;;;;;;;;5105484;28;20027;-54
2023/07/04 13:46:17;;;;;;;5.22;1.00;;;;;;;;;;5105630;28;20024;-54
2023/07/04 13:48:44;;;;;;;4.88;1.00;;;;;;;;;;5105604;28;20036;-62
2023/07/04 13:51:11;;;;;;;6.03;0.80;;;;;;;;;;5105270;28;20266;-53
2023/07/04 13:53:37;;;;;;;3.58;0.65;;;;;;;;;;5105526;28;20020;-55
2023/07/04 13:56:04;;;;;;;3.00;0.80;;;;;;;;;;5105318;28;20332;-53
2023/07/04 13:58:31;;;;;;;2.22;0.90;;;;;;;;;;5105166;28;20039;-55
2023/07/04 14:00:58;;;;;;;4.22;0.90;;;;;;;;;;5105376;28;20324;-56
2023/07/04 14:03:26;;;;;;;4.20;1.10;;;;;;;;;;5105212;28;20043;-54
2023/07/04 14:05:52;;;;;;;5.53;1.00;;;;;;;;;;5104998;28;20036;-59
2023/07/04 14:08:19;;;;;;;4.68;1.13;;;;;;;;;;5105226;28;20027;-53
2023/07/04 14:10:45;;;;;;;3.70;1.23;;;;;;;;;;5105227;28;20052;-59
2023/07/04 14:13:12;;;;;;;4.55;1.00;;;;;;;;;;5104871;28;20038;-54
2023/07/04 14:15:39;;;;;;;2.85;0.95;;;;;;;;;;5104921;28;20032;-56
2023/07/04 14:18:05;;;;;;;4.63;0.88;;;;;;;;;;5105026;28;20343;-54
2023/07/04 14:20:32;;;;;;;4.72;0.90;;;;;;;;;;5104030;28;20061;-57
2023/07/04 14:22:58;;;;;;;2.80;0.80;;;;;;;;;;5103485;28;20024;-58
2023/07/04 14:25:26;;;;;;;4.05;0.85;;;;;;;;;;5086607;28;20120;-52
2023/07/04 14:27:53;;;;;;;7.82;2.00;;;;;;;;;;5098070;28;20038;-59
2023/07/04 14:30:19;;;;;;;7.32;1.92;;;;;;;;;;5102760;28;20028;-54
2023/07/04 14:32:46;;;;;;;3.85;1.55;;;;;;;;;;5104894;28;20044;-58
2023/07/04 14:35:12;;;;;;;2.83;1.30;;;;;;;;;;5105053;28;20043;-54
2023/07/04 14:37:39;;;;;;;5.97;1.80;;;;;;;;;;5104665;28;20091;-54
2023/07/04 14:40:06;;;;;;;2.70;1.00;;;;;;;;;;5105089;28;20030;-54
2023/07/04 14:42:32;;;;;;;3.83;1.13;;;;;;;;;;5103256;28;20020;-54
2023/07/04 14:44:59;;;;;;;3.38;1.60;;;;;;;;;;5103974;28;20024;-56
2023/07/04 14:47:25;;;;;;;4.00;1.15;;;;;;;;;;5102752;28;20213;-55